Terminal Aerodrome Forecast
Issued by NWS

Home | Current Version | Previous Version | Text Only | Print | Product List | Glossary On
Versions: 1 2 3 4 5 6 7 8 9 10 11 12 13 14 15 16 17 18 19 20 21 22 23 24 25 26 27
780
FTUS43 KLOT 271506 AAA
TAFORD
TAF AMD
KORD 271506Z 2715/2818 03011KT P6SM SCT020 BKN035
      TEMPO 2715/2717 BKN020 BKN100
     FM272000 04013G20KT P6SM SCT025 BKN040
     FM280200 03010KT P6SM FEW040 BKN250
     FM281400 03012G19KT P6SM SCT030=

USA.gov is the U.S. government's official web portal to all federal, state and local government web resources and services.